sensor_id;sensor_type;location;lat;lon;timestamp;P1;durP1;ratioP1;P2;durP2;ratioP2
8893;SDS011;4483;48.622;9.230;2023-04-03T00:02:20;2.67;;;2.00;;
8893;SDS011;4483;48.622;9.230;2023-04-03T00:04:47;6.03;;;2.10;;
8893;SDS011;4483;48.622;9.230;2023-04-03T00:07:13;2.27;;;1.80;;
8893;SDS011;4483;48.622;9.230;2023-04-03T00:09:42;4.30;;;2.30;;
8893;SDS011;4483;48.622;9.230;2023-04-03T00:12:08;3.23;;;1.97;;
8893;SDS011;4483;48.622;9.230;2023-04-03T00:14:35;2.20;;;2.10;;
8893;SDS011;4483;48.622;9.230;2023-04-03T00:17:02;2.27;;;2.13;;
8893;SDS011;4483;48.622;9.230;2023-04-03T00:19:29;2.37;;;1.80;;
8893;SDS011;4483;48.622;9.230;2023-04-03T00:21:56;2.77;;;1.93;;
8893;SDS011;4483;48.622;9.230;2023-04-03T00:24:23;3.83;;;2.10;;
8893;SDS011;4483;48.622;9.230;2023-04-03T00:26:51;2.20;;;2.10;;
8893;SDS011;4483;48.622;9.230;2023-04-03T00:29:18;2.30;;;2.20;;
8893;SDS011;4483;48.622;9.230;2023-04-03T00:31:44;2.17;;;1.90;;
8893;SDS011;4483;48.622;9.230;2023-04-03T00:34:11;1.80;;;1.70;;
8893;SDS011;4483;48.622;9.230;2023-04-03T00:36:38;2.37;;;1.83;;
8893;SDS011;4483;48.622;9.230;2023-04-03T00:39:04;2.20;;;2.00;;
8893;SDS011;4483;48.622;9.230;2023-04-03T00:41:31;3.10;;;2.10;;
8893;SDS011;4483;48.622;9.230;2023-04-03T00:43:59;2.83;;;2.10;;
8893;SDS011;4483;48.622;9.230;2023-04-03T00:46:25;3.13;;;1.97;;
8893;SDS011;4483;48.622;9.230;2023-04-03T00:48:52;2.03;;;1.93;;
8893;SDS011;4483;48.622;9.230;2023-04-03T00:51:19;4.03;;;2.10;;
8893;SDS011;4483;48.622;9.230;2023-04-03T00:53:50;3.23;;;2.30;;
8893;SDS011;4483;48.622;9.230;2023-04-03T00:56:22;2.20;;;2.00;;
8893;SDS011;4483;48.622;9.230;2023-04-03T00:58:54;3.00;;;2.00;;
8893;SDS011;4483;48.622;9.230;2023-04-03T01:01:26;2.33;;;2.13;;
8893;SDS011;4483;48.622;9.230;2023-04-03T01:03:55;3.00;;;2.07;;
8893;SDS011;4483;48.622;9.230;2023-04-03T01:06:24;2.10;;;2.00;;
8893;SDS011;4483;48.622;9.230;2023-04-03T01:08:53;1.90;;;1.80;;
8893;SDS011;4483;48.622;9.230;2023-04-03T01:11:21;2.23;;;2.10;;
8893;SDS011;4483;48.622;9.230;2023-04-03T01:13:48;2.20;;;2.00;;
8893;SDS011;4483;48.622;9.230;2023-04-03T01:16:15;2.00;;;1.90;;
8893;SDS011;4483;48.622;9.230;2023-04-03T01:18:43;2.37;;;2.17;;
8893;SDS011;4483;48.622;9.230;2023-04-03T01:21:15;2.40;;;2.20;;
8893;SDS011;4483;48.622;9.230;2023-04-03T01:24:05;2.17;;;2.07;;
8893;SDS011;4483;48.622;9.230;2023-04-03T01:26:49;4.00;;;2.17;;
8893;SDS011;4483;48.622;9.230;2023-04-03T01:29:16;2.40;;;2.20;;
8893;SDS011;4483;48.622;9.230;2023-04-03T01:31:48;2.43;;;2.23;;
8893;SDS011;4483;48.622;9.230;2023-04-03T01:34:16;2.00;;;1.90;;
8893;SDS011;4483;48.622;9.230;2023-04-03T01:36:43;1.77;;;1.67;;
8893;SDS011;4483;48.622;9.230;2023-04-03T01:39:10;2.80;;;2.10;;
8893;SDS011;4483;48.622;9.230;2023-04-03T01:41:37;2.47;;;2.27;;
8893;SDS011;4483;48.622;9.230;2023-04-03T01:44:04;3.37;;;2.30;;
8893;SDS011;4483;48.622;9.230;2023-04-03T01:46:31;2.57;;;2.23;;
8893;SDS011;4483;48.622;9.230;2023-04-03T01:48:59;2.17;;;1.93;;
8893;SDS011;4483;48.622;9.230;2023-04-03T01:51:26;3.37;;;2.10;;
8893;SDS011;4483;48.622;9.230;2023-04-03T01:53:53;2.17;;;1.97;;
8893;SDS011;4483;48.622;9.230;2023-04-03T01:56:20;3.73;;;1.77;;
8893;SDS011;4483;48.622;9.230;2023-04-03T01:58:46;1.87;;;1.77;;
8893;SDS011;4483;48.622;9.230;2023-04-03T02:01:13;2.03;;;1.93;;
8893;SDS011;4483;48.622;9.230;2023-04-03T02:03:40;1.93;;;1.80;;
8893;SDS011;4483;48.622;9.230;2023-04-03T02:06:08;2.03;;;1.83;;
8893;SDS011;4483;48.622;9.230;2023-04-03T02:08:34;2.30;;;2.10;;
8893;SDS011;4483;48.622;9.230;2023-04-03T02:11:01;2.57;;;2.37;;
8893;SDS011;4483;48.622;9.230;2023-04-03T02:13:27;2.13;;;1.93;;
8893;SDS011;4483;48.622;9.230;2023-04-03T02:15:54;1.90;;;1.80;;
8893;SDS011;4483;48.622;9.230;2023-04-03T02:18:21;2.20;;;2.00;;
8893;SDS011;4483;48.622;9.230;2023-04-03T02:20:47;2.17;;;2.07;;
8893;SDS011;4483;48.622;9.230;2023-04-03T02:23:15;2.20;;;2.00;;
8893;SDS011;4483;48.622;9.230;2023-04-03T02:25:42;2.47;;;2.10;;
8893;SDS011;4483;48.622;9.230;2023-04-03T02:28:08;3.17;;;2.20;;
8893;SDS011;4483;48.622;9.230;2023-04-03T02:30:35;3.07;;;1.70;;
8893;SDS011;4483;48.622;9.230;2023-04-03T02:33:02;2.03;;;1.80;;
8893;SDS011;4483;48.622;9.230;2023-04-03T02:35:28;3.03;;;2.07;;
8893;SDS011;4483;48.622;9.230;2023-04-03T02:37:55;2.47;;;1.90;;
8893;SDS011;4483;48.622;9.230;2023-04-03T02:40:23;2.17;;;1.93;;
8893;SDS011;4483;48.622;9.230;2023-04-03T02:42:49;2.23;;;2.03;;
8893;SDS011;4483;48.622;9.230;2023-04-03T02:45:16;3.27;;;2.10;;
8893;SDS011;4483;48.622;9.230;2023-04-03T02:47:43;2.53;;;2.27;;
8893;SDS011;4483;48.622;9.230;2023-04-03T02:50:09;2.67;;;1.67;;
8893;SDS011;4483;48.622;9.230;2023-04-03T02:52:36;1.93;;;1.80;;
8893;SDS011;4483;48.622;9.230;2023-04-03T02:55:03;1.90;;;1.80;;
8893;SDS011;4483;48.622;9.230;2023-04-03T02:57:31;3.60;;;2.17;;
8893;SDS011;4483;48.622;9.230;2023-04-03T02:59:58;2.10;;;1.90;;
8893;SDS011;4483;48.622;9.230;2023-04-03T03:02:24;2.40;;;2.10;;
8893;SDS011;4483;48.622;9.230;2023-04-03T03:04:51;1.90;;;1.80;;
8893;SDS011;4483;48.622;9.230;2023-04-03T03:07:18;1.80;;;1.70;;
8893;SDS011;4483;48.622;9.230;2023-04-03T03:09:44;2.60;;;1.90;;
8893;SDS011;4483;48.622;9.230;2023-04-03T03:12:11;1.80;;;1.70;;
8893;SDS011;4483;48.622;9.230;2023-04-03T03:14:39;1.90;;;1.80;;
8893;SDS011;4483;48.622;9.230;2023-04-03T03:17:07;3.70;;;1.90;;
8893;SDS011;4483;48.622;9.230;2023-04-03T03:19:34;2.17;;;2.00;;
8893;SDS011;4483;48.622;9.230;2023-04-03T03:22:01;2.60;;;2.37;;
8893;SDS011;4483;48.622;9.230;2023-04-03T03:24:27;3.73;;;2.07;;
8893;SDS011;4483;48.622;9.230;2023-04-03T03:26:54;1.70;;;1.60;;
8893;SDS011;4483;48.622;9.230;2023-04-03T03:29:21;3.07;;;1.80;;
8893;SDS011;4483;48.622;9.230;2023-04-03T03:31:49;2.10;;;1.70;;
8893;SDS011;4483;48.622;9.230;2023-04-03T03:34:16;2.00;;;1.90;;
8893;SDS011;4483;48.622;9.230;2023-04-03T03:36:42;1.83;;;1.60;;
8893;SDS011;4483;48.622;9.230;2023-04-03T03:39:09;2.37;;;1.83;;
8893;SDS011;4483;48.622;9.230;2023-04-03T03:41:36;2.00;;;1.80;;
8893;SDS011;4483;48.622;9.230;2023-04-03T03:44:03;2.50;;;1.80;;
8893;SDS011;4483;48.622;9.230;2023-04-03T03:46:30;3.90;;;2.07;;
8893;SDS011;4483;48.622;9.230;2023-04-03T03:48:58;2.90;;;1.90;;
8893;SDS011;4483;48.622;9.230;2023-04-03T03:51:24;2.17;;;1.97;;
8893;SDS011;4483;48.622;9.230;2023-04-03T03:53:51;1.90;;;1.80;;
8893;SDS011;4483;48.622;9.230;2023-04-03T03:56:17;3.03;;;2.03;;
8893;SDS011;4483;48.622;9.230;2023-04-03T03:58:45;2.80;;;2.13;;
8893;SDS011;4483;48.622;9.230;2023-04-03T04:01:11;2.13;;;1.93;;
8893;SDS011;4483;48.622;9.230;2023-04-03T04:03:38;2.40;;;2.20;;
8893;SDS011;4483;48.622;9.230;2023-04-03T04:06:06;1.80;;;1.70;;
8893;SDS011;4483;48.622;9.230;2023-04-03T04:08:33;2.13;;;1.93;;
8893;SDS011;4483;48.622;9.230;2023-04-03T04:11:00;1.83;;;1.70;;
8893;SDS011;4483;48.622;9.230;2023-04-03T04:13:26;2.93;;;1.90;;
8893;SDS011;4483;48.622;9.230;2023-04-03T04:15:53;3.97;;;2.10;;
8893;SDS011;4483;48.622;9.230;2023-04-03T04:18:19;1.83;;;1.73;;
8893;SDS011;4483;48.622;9.230;2023-04-03T04:20:47;2.17;;;1.87;;
8893;SDS011;4483;48.622;9.230;2023-04-03T04:23:15;2.10;;;1.90;;
8893;SDS011;4483;48.622;9.230;2023-04-03T04:25:43;1.83;;;1.70;;
8893;SDS011;4483;48.622;9.230;2023-04-03T04:28:10;2.17;;;1.67;;
8893;SDS011;4483;48.622;9.230;2023-04-03T04:30:37;2.70;;;2.00;;
8893;SDS011;4483;48.622;9.230;2023-04-03T04:33:04;2.20;;;2.00;;
8893;SDS011;4483;48.622;9.230;2023-04-03T04:35:31;3.57;;;1.80;;
8893;SDS011;4483;48.622;9.230;2023-04-03T04:37:58;2.10;;;1.90;;
8893;SDS011;4483;48.622;9.230;2023-04-03T04:40:26;2.30;;;2.10;;
8893;SDS011;4483;48.622;9.230;2023-04-03T04:42:53;1.73;;;1.63;;
8893;SDS011;4483;48.622;9.230;2023-04-03T04:45:20;1.93;;;1.83;;
8893;SDS011;4483;48.622;9.230;2023-04-03T04:47:46;2.30;;;1.83;;
8893;SDS011;4483;48.622;9.230;2023-04-03T04:50:16;1.90;;;1.80;;
8893;SDS011;4483;48.622;9.230;2023-04-03T04:52:43;2.27;;;2.07;;
8893;SDS011;4483;48.622;9.230;2023-04-03T04:55:09;2.93;;;2.00;;
8893;SDS011;4483;48.622;9.230;2023-04-03T04:57:37;2.50;;;1.70;;
8893;SDS011;4483;48.622;9.230;2023-04-03T05:00:05;1.90;;;1.80;;
8893;SDS011;4483;48.622;9.230;2023-04-03T05:02:32;2.03;;;1.80;;
8893;SDS011;4483;48.622;9.230;2023-04-03T05:04:59;1.80;;;1.70;;
8893;SDS011;4483;48.622;9.230;2023-04-03T05:07:26;2.43;;;1.80;;
8893;SDS011;4483;48.622;9.230;2023-04-03T05:09:52;2.50;;;2.30;;
8893;SDS011;4483;48.622;9.230;2023-04-03T05:12:19;5.07;;;1.77;;
8893;SDS011;4483;48.622;9.230;2023-04-03T05:14:47;2.10;;;1.60;;
8893;SDS011;4483;48.622;9.230;2023-04-03T05:17:14;1.80;;;1.70;;
8893;SDS011;4483;48.622;9.230;2023-04-03T05:19:40;1.73;;;1.63;;
8893;SDS011;4483;48.622;9.230;2023-04-03T05:22:07;4.60;;;1.73;;
8893;SDS011;4483;48.622;9.230;2023-04-03T05:24:34;1.43;;;1.33;;
8893;SDS011;4483;48.622;9.230;2023-04-03T05:27:00;2.40;;;1.57;;
8893;SDS011;4483;48.622;9.230;2023-04-03T05:29:27;1.77;;;1.30;;
8893;SDS011;4483;48.622;9.230;2023-04-03T05:31:55;1.80;;;1.70;;
8893;SDS011;4483;48.622;9.230;2023-04-03T05:34:22;1.93;;;1.73;;
8893;SDS011;4483;48.622;9.230;2023-04-03T05:36:48;1.50;;;1.50;;
8893;SDS011;4483;48.622;9.230;2023-04-03T05:39:15;1.70;;;1.60;;
8893;SDS011;4483;48.622;9.230;2023-04-03T05:41:41;3.53;;;1.80;;
8893;SDS011;4483;48.622;9.230;2023-04-03T05:44:08;1.63;;;1.50;;
8893;SDS011;4483;48.622;9.230;2023-04-03T05:46:35;1.30;;;1.20;;
8893;SDS011;4483;48.622;9.230;2023-04-03T05:49:03;4.10;;;1.57;;
8893;SDS011;4483;48.622;9.230;2023-04-03T05:51:30;2.00;;;1.70;;
8893;SDS011;4483;48.622;9.230;2023-04-03T05:54:01;3.10;;;1.60;;
8893;SDS011;4483;48.622;9.230;2023-04-03T05:56:32;1.87;;;1.50;;
8893;SDS011;4483;48.622;9.230;2023-04-03T05:58:59;1.85;;;1.70;;
8893;SDS011;4483;48.622;9.230;2023-04-03T06:01:25;2.00;;;1.63;;
8893;SDS011;4483;48.622;9.230;2023-04-03T06:03:52;1.60;;;1.50;;
8893;SDS011;4483;48.622;9.230;2023-04-03T06:06:20;1.57;;;1.47;;
8893;SDS011;4483;48.622;9.230;2023-04-03T06:08:47;1.50;;;1.47;;
8893;SDS011;4483;48.622;9.230;2023-04-03T06:11:14;1.80;;;1.70;;
8893;SDS011;4483;48.622;9.230;2023-04-03T06:13:41;1.57;;;1.50;;
8893;SDS011;4483;48.622;9.230;2023-04-03T06:16:08;1.70;;;1.40;;
8893;SDS011;4483;48.622;9.230;2023-04-03T06:18:35;1.43;;;1.30;;
8893;SDS011;4483;48.622;9.230;2023-04-03T06:21:02;1.70;;;1.60;;
8893;SDS011;4483;48.622;9.230;2023-04-03T06:23:32;2.97;;;1.60;;
8893;SDS011;4483;48.622;9.230;2023-04-03T06:25:59;1.90;;;1.60;;
8893;SDS011;4483;48.622;9.230;2023-04-03T06:28:25;2.50;;;1.70;;
8893;SDS011;4483;48.622;9.230;2023-04-03T06:30:52;3.47;;;1.70;;
8893;SDS011;4483;48.622;9.230;2023-04-03T06:33:19;2.33;;;1.43;;
8893;SDS011;4483;48.622;9.230;2023-04-03T06:35:45;1.87;;;1.70;;
8893;SDS011;4483;48.622;9.230;2023-04-03T06:38:12;1.37;;;1.33;;
8893;SDS011;4483;48.622;9.230;2023-04-03T06:40:40;1.97;;;1.77;;
8893;SDS011;4483;48.622;9.230;2023-04-03T06:43:06;1.90;;;1.70;;
8893;SDS011;4483;48.622;9.230;2023-04-03T06:45:33;1.80;;;1.57;;
8893;SDS011;4483;48.622;9.230;2023-04-03T06:48:01;2.00;;;1.50;;
8893;SDS011;4483;48.622;9.230;2023-04-03T06:50:27;1.23;;;1.23;;
8893;SDS011;4483;48.622;9.230;2023-04-03T06:52:54;1.63;;;1.50;;
8893;SDS011;4483;48.622;9.230;2023-04-03T06:55:21;1.60;;;1.50;;
8893;SDS011;4483;48.622;9.230;2023-04-03T06:57:49;2.30;;;1.57;;
8893;SDS011;4483;48.622;9.230;2023-04-03T07:00:16;1.33;;;1.23;;
8893;SDS011;4483;48.622;9.230;2023-04-03T07:02:43;1.30;;;1.30;;
8893;SDS011;4483;48.622;9.230;2023-04-03T07:05:10;1.93;;;1.80;;
8893;SDS011;4483;48.622;9.230;2023-04-03T07:07:37;1.50;;;1.40;;
8893;SDS011;4483;48.622;9.230;2023-04-03T07:10:04;1.47;;;1.47;;
8893;SDS011;4483;48.622;9.230;2023-04-03T07:12:32;2.17;;;1.80;;
8893;SDS011;4483;48.622;9.230;2023-04-03T07:15:00;2.53;;;1.67;;
8893;SDS011;4483;48.622;9.230;2023-04-03T07:17:28;1.40;;;1.40;;
8893;SDS011;4483;48.622;9.230;2023-04-03T07:19:54;1.67;;;1.57;;
8893;SDS011;4483;48.622;9.230;2023-04-03T07:25:43;2.30;;;1.77;;
8893;SDS011;4483;48.622;9.230;2023-04-03T07:28:10;2.80;;;1.80;;
8893;SDS011;4483;48.622;9.230;2023-04-03T07:30:43;1.87;;;1.63;;
8893;SDS011;4483;48.622;9.230;2023-04-03T07:33:10;2.03;;;1.60;;
8893;SDS011;4483;48.622;9.230;2023-04-03T07:35:38;1.57;;;1.47;;
8893;SDS011;4483;48.622;9.230;2023-04-03T07:38:04;1.60;;;1.50;;
8893;SDS011;4483;48.622;9.230;2023-04-03T07:40:31;1.60;;;1.50;;
8893;SDS011;4483;48.622;9.230;2023-04-03T07:42:58;1.30;;;1.30;;
8893;SDS011;4483;48.622;9.230;2023-04-03T07:45:25;1.73;;;1.63;;
8893;SDS011;4483;48.622;9.230;2023-04-03T07:47:53;1.80;;;1.70;;
8893;SDS011;4483;48.622;9.230;2023-04-03T07:50:20;1.77;;;1.60;;
8893;SDS011;4483;48.622;9.230;2023-04-03T07:52:47;2.83;;;1.40;;
8893;SDS011;4483;48.622;9.230;2023-04-03T07:55:15;2.07;;;1.60;;
8893;SDS011;4483;48.622;9.230;2023-04-03T07:57:42;1.93;;;1.73;;
8893;SDS011;4483;48.622;9.230;2023-04-03T08:00:09;2.50;;;1.73;;
8893;SDS011;4483;48.622;9.230;2023-04-03T08:02:37;1.60;;;1.50;;
8893;SDS011;4483;48.622;9.230;2023-04-03T08:05:05;3.83;;;1.80;;
8893;SDS011;4483;48.622;9.230;2023-04-03T08:07:32;2.97;;;1.63;;
8893;SDS011;4483;48.622;9.230;2023-04-03T08:09:59;2.27;;;1.40;;
8893;SDS011;4483;48.622;9.230;2023-04-03T08:12:26;1.73;;;1.60;;
8893;SDS011;4483;48.622;9.230;2023-04-03T08:14:53;1.67;;;1.57;;
8893;SDS011;4483;48.622;9.230;2023-04-03T08:17:20;1.60;;;1.50;;
8893;SDS011;4483;48.622;9.230;2023-04-03T08:19:46;1.70;;;1.60;;
8893;SDS011;4483;48.622;9.230;2023-04-03T08:22:14;2.30;;;1.70;;
8893;SDS011;4483;48.622;9.230;2023-04-03T08:24:41;3.63;;;1.43;;
8893;SDS011;4483;48.622;9.230;2023-04-03T08:27:08;2.60;;;2.00;;
8893;SDS011;4483;48.622;9.230;2023-04-03T08:29:35;1.73;;;1.63;;
8893;SDS011;4483;48.622;9.230;2023-04-03T08:32:02;1.83;;;1.70;;
8893;SDS011;4483;48.622;9.230;2023-04-03T08:34:29;3.90;;;1.50;;
8893;SDS011;4483;48.622;9.230;2023-04-03T08:36:59;1.53;;;1.43;;
8893;SDS011;4483;48.622;9.230;2023-04-03T08:39:27;3.70;;;1.63;;
8893;SDS011;4483;48.622;9.230;2023-04-03T08:41:55;5.77;;;1.80;;
8893;SDS011;4483;48.622;9.230;2023-04-03T08:44:28;2.10;;;1.60;;
8893;SDS011;4483;48.622;9.230;2023-04-03T08:47:10;2.50;;;1.93;;
8893;SDS011;4483;48.622;9.230;2023-04-03T08:49:42;2.10;;;1.90;;
8893;SDS011;4483;48.622;9.230;2023-04-03T08:52:13;3.13;;;1.70;;
8893;SDS011;4483;48.622;9.230;2023-04-03T08:54:48;1.87;;;1.63;;
8893;SDS011;4483;48.622;9.230;2023-04-03T08:57:17;2.00;;;1.83;;
8893;SDS011;4483;48.622;9.230;2023-04-03T08:59:52;2.93;;;1.87;;
8893;SDS011;4483;48.622;9.230;2023-04-03T09:02:23;1.67;;;1.50;;
8893;SDS011;4483;48.622;9.230;2023-04-03T09:04:54;2.07;;;1.97;;
8893;SDS011;4483;48.622;9.230;2023-04-03T09:07:22;3.40;;;1.97;;
8893;SDS011;4483;48.622;9.230;2023-04-03T09:09:55;2.70;;;1.93;;
8893;SDS011;4483;48.622;9.230;2023-04-03T09:12:25;2.73;;;1.73;;
8893;SDS011;4483;48.622;9.230;2023-04-03T09:14:59;1.87;;;1.57;;
8893;SDS011;4483;48.622;9.230;2023-04-03T09:17:38;3.10;;;1.70;;
8893;SDS011;4483;48.622;9.230;2023-04-03T09:20:16;2.03;;;1.90;;
8893;SDS011;4483;48.622;9.230;2023-04-03T09:22:48;3.47;;;1.63;;
8893;SDS011;4483;48.622;9.230;2023-04-03T09:25:20;1.67;;;1.57;;
8893;SDS011;4483;48.622;9.230;2023-04-03T09:27:48;2.60;;;1.83;;
8893;SDS011;4483;48.622;9.230;2023-04-03T09:30:16;2.33;;;1.93;;
8893;SDS011;4483;48.622;9.230;2023-04-03T09:32:44;1.93;;;1.63;;
8893;SDS011;4483;48.622;9.230;2023-04-03T09:35:16;2.57;;;1.80;;
8893;SDS011;4483;48.622;9.230;2023-04-03T09:37:47;4.03;;;1.87;;
8893;SDS011;4483;48.622;9.230;2023-04-03T09:40:33;1.97;;;1.77;;
8893;SDS011;4483;48.622;9.230;2023-04-03T09:43:03;2.00;;;1.60;;
8893;SDS011;4483;48.622;9.230;2023-04-03T09:45:47;1.50;;;1.50;;
8893;SDS011;4483;48.622;9.230;2023-04-03T09:48:16;1.70;;;1.60;;
8893;SDS011;4483;48.622;9.230;2023-04-03T09:50:58;1.60;;;1.50;;
8893;SDS011;4483;48.622;9.230;2023-04-03T09:53:34;2.03;;;1.80;;
8893;SDS011;4483;48.622;9.230;2023-04-03T09:56:04;1.80;;;1.70;;
8893;SDS011;4483;48.622;9.230;2023-04-03T09:58:47;3.57;;;1.87;;
8893;SDS011;4483;48.622;9.230;2023-04-03T10:01:22;1.87;;;1.50;;
8893;SDS011;4483;48.622;9.230;2023-04-03T10:04:03;3.13;;;1.60;;
8893;SDS011;4483;48.622;9.230;2023-04-03T10:06:36;2.03;;;1.63;;
8893;SDS011;4483;48.622;9.230;2023-04-03T10:09:14;4.07;;;1.70;;
8893;SDS011;4483;48.622;9.230;2023-04-03T10:11:56;1.80;;;1.50;;
8893;SDS011;4483;48.622;9.230;2023-04-03T10:14:24;1.70;;;1.60;;
8893;SDS011;4483;48.622;9.230;2023-04-03T10:16:52;1.50;;;1.40;;
8893;SDS011;4483;48.622;9.230;2023-04-03T10:19:31;1.43;;;1.33;;
8893;SDS011;4483;48.622;9.230;2023-04-03T10:22:03;1.20;;;1.20;;
8893;SDS011;4483;48.622;9.230;2023-04-03T10:24:43;1.80;;;1.70;;
8893;SDS011;4483;48.622;9.230;2023-04-03T10:27:18;1.40;;;1.30;;
8893;SDS011;4483;48.622;9.230;2023-04-03T10:29:54;1.57;;;1.47;;
8893;SDS011;4483;48.622;9.230;2023-04-03T10:32:29;1.70;;;1.60;;
8893;SDS011;4483;48.622;9.230;2023-04-03T10:35:08;1.80;;;1.40;;
8893;SDS011;4483;48.622;9.230;2023-04-03T10:37:46;1.70;;;1.60;;
8893;SDS011;4483;48.622;9.230;2023-04-03T10:40:23;1.30;;;1.23;;
8893;SDS011;4483;48.622;9.230;2023-04-03T10:43:00;1.30;;;1.20;;
8893;SDS011;4483;48.622;9.230;2023-04-03T10:45:37;3.47;;;1.50;;
8893;SDS011;4483;48.622;9.230;2023-04-03T10:48:25;1.43;;;1.30;;
8893;SDS011;4483;48.622;9.230;2023-04-03T10:51:06;1.50;;;1.40;;
8893;SDS011;4483;48.622;9.230;2023-04-03T10:53:48;1.40;;;1.33;;
8893;SDS011;4483;48.622;9.230;2023-04-03T10:56:24;2.60;;;1.17;;
8893;SDS011;4483;48.622;9.230;2023-04-03T10:59:01;1.40;;;1.30;;
8893;SDS011;4483;48.622;9.230;2023-04-03T11:01:39;1.10;;;1.00;;
8893;SDS011;4483;48.622;9.230;2023-04-03T11:04:08;1.30;;;1.20;;
8893;SDS011;4483;48.622;9.230;2023-04-03T11:06:38;5.53;;;1.40;;
8893;SDS011;4483;48.622;9.230;2023-04-03T11:09:12;3.73;;;1.40;;
8893;SDS011;4483;48.622;9.230;2023-04-03T11:11:47;3.87;;;1.50;;
8893;SDS011;4483;48.622;9.230;2023-04-03T11:14:21;2.27;;;1.40;;
8893;SDS011;4483;48.622;9.230;2023-04-03T11:16:54;1.80;;;1.37;;
8893;SDS011;4483;48.622;9.230;2023-04-03T11:19:39;1.03;;;1.03;;
8893;SDS011;4483;48.622;9.230;2023-04-03T11:22:13;1.77;;;1.30;;
8893;SDS011;4483;48.622;9.230;2023-04-03T11:24:50;1.37;;;1.13;;
8893;SDS011;4483;48.622;9.230;2023-04-03T11:27:23;2.20;;;1.20;;
8893;SDS011;4483;48.622;9.230;2023-04-03T11:29:53;1.70;;;1.60;;
8893;SDS011;4483;48.622;9.230;2023-04-03T11:32:27;1.90;;;1.63;;
8893;SDS011;4483;48.622;9.230;2023-04-03T11:35:07;1.93;;;1.70;;
8893;SDS011;4483;48.622;9.230;2023-04-03T11:37:37;2.30;;;1.33;;
8893;SDS011;4483;48.622;9.230;2023-04-03T11:40:06;2.20;;;1.50;;
8893;SDS011;4483;48.622;9.230;2023-04-03T11:42:46;2.00;;;1.47;;
8893;SDS011;4483;48.622;9.230;2023-04-03T11:48:03;4.33;;;1.70;;
8893;SDS011;4483;48.622;9.230;2023-04-03T11:50:41;3.77;;;1.37;;
8893;SDS011;4483;48.622;9.230;2023-04-03T12:01:45;1.87;;;1.37;;
8893;SDS011;4483;48.622;9.230;2023-04-03T12:04:13;2.40;;;1.20;;
8893;SDS011;4483;48.622;9.230;2023-04-03T12:06:53;1.37;;;1.27;;
8893;SDS011;4483;48.622;9.230;2023-04-03T12:09:52;1.40;;;1.30;;
8893;SDS011;4483;48.622;9.230;2023-04-03T12:12:26;1.30;;;1.20;;
8893;SDS011;4483;48.622;9.230;2023-04-03T12:18:40;2.00;;;1.07;;
8893;SDS011;4483;48.622;9.230;2023-04-03T12:21:09;1.93;;;1.40;;
8893;SDS011;4483;48.622;9.230;2023-04-03T12:23:36;2.63;;;1.80;;
8893;SDS011;4483;48.622;9.230;2023-04-03T12:26:22;1.50;;;1.40;;
8893;SDS011;4483;48.622;9.230;2023-04-03T12:28:52;2.83;;;1.40;;
8893;SDS011;4483;48.622;9.230;2023-04-03T12:31:22;2.40;;;1.13;;
8893;SDS011;4483;48.622;9.230;2023-04-03T12:34:04;1.70;;;1.60;;
8893;SDS011;4483;48.622;9.230;2023-04-03T12:36:45;2.33;;;1.17;;
8893;SDS011;4483;48.622;9.230;2023-04-03T12:39:33;2.03;;;1.30;;
8893;SDS011;4483;48.622;9.230;2023-04-03T12:42:15;1.73;;;1.30;;
8893;SDS011;4483;48.622;9.230;2023-04-03T12:44:50;2.30;;;1.60;;
8893;SDS011;4483;48.622;9.230;2023-04-03T12:47:27;1.47;;;1.33;;
8893;SDS011;4483;48.622;9.230;2023-04-03T12:49:59;2.00;;;1.30;;
8893;SDS011;4483;48.622;9.230;2023-04-03T12:52:30;1.30;;;1.20;;
8893;SDS011;4483;48.622;9.230;2023-04-03T12:55:01;1.50;;;1.40;;
8893;SDS011;4483;48.622;9.230;2023-04-03T12:57:35;1.60;;;1.30;;
8893;SDS011;4483;48.622;9.230;2023-04-03T13:03:04;3.90;;;1.30;;
8893;SDS011;4483;48.622;9.230;2023-04-03T13:05:34;1.37;;;1.20;;
8893;SDS011;4483;48.622;9.230;2023-04-03T13:08:03;1.30;;;1.20;;
8893;SDS011;4483;48.622;9.230;2023-04-03T13:10:31;3.80;;;1.63;;
8893;SDS011;4483;48.622;9.230;2023-04-03T13:13:09;2.30;;;1.20;;
8893;SDS011;4483;48.622;9.230;2023-04-03T13:15:41;1.63;;;0.90;;
8893;SDS011;4483;48.622;9.230;2023-04-03T13:18:21;1.40;;;1.30;;
8893;SDS011;4483;48.622;9.230;2023-04-03T13:20:50;3.60;;;1.37;;
8893;SDS011;4483;48.622;9.230;2023-04-03T13:23:18;1.50;;;1.30;;
8893;SDS011;4483;48.622;9.230;2023-04-03T13:25:48;1.77;;;1.37;;
8893;SDS011;4483;48.622;9.230;2023-04-03T13:28:17;1.50;;;1.40;;
8893;SDS011;4483;48.622;9.230;2023-04-03T13:30:54;1.73;;;1.30;;
8893;SDS011;4483;48.622;9.230;2023-04-03T13:33:24;1.30;;;1.20;;
8893;SDS011;4483;48.622;9.230;2023-04-03T13:35:57;3.53;;;1.50;;
8893;SDS011;4483;48.622;9.230;2023-04-03T13:38:29;4.77;;;1.57;;
8893;SDS011;4483;48.622;9.230;2023-04-03T13:40:59;2.00;;;1.20;;
8893;SDS011;4483;48.622;9.230;2023-04-03T13:43:28;2.30;;;1.40;;
8893;SDS011;4483;48.622;9.230;2023-04-03T13:46:01;2.57;;;1.33;;
8893;SDS011;4483;48.622;9.230;2023-04-03T13:48:35;1.47;;;1.20;;
8893;SDS011;4483;48.622;9.230;2023-04-03T13:51:07;1.30;;;1.30;;
8893;SDS011;4483;48.622;9.230;2023-04-03T13:53:48;1.40;;;1.30;;
8893;SDS011;4483;48.622;9.230;2023-04-03T13:56:18;2.27;;;1.33;;
8893;SDS011;4483;48.622;9.230;2023-04-03T14:01:48;2.47;;;1.30;;
8893;SDS011;4483;48.622;9.230;2023-04-03T14:04:18;1.30;;;1.20;;
8893;SDS011;4483;48.622;9.230;2023-04-03T14:06:48;1.37;;;1.30;;
8893;SDS011;4483;48.622;9.230;2023-04-03T14:09:17;1.37;;;1.27;;
8893;SDS011;4483;48.622;9.230;2023-04-03T14:11:44;1.37;;;1.20;;
8893;SDS011;4483;48.622;9.230;2023-04-03T14:14:13;2.83;;;1.57;;
8893;SDS011;4483;48.622;9.230;2023-04-03T14:16:44;1.87;;;1.63;;
8893;SDS011;4483;48.622;9.230;2023-04-03T14:19:20;2.63;;;1.30;;
8893;SDS011;4483;48.622;9.230;2023-04-03T14:21:50;1.43;;;1.40;;
8893;SDS011;4483;48.622;9.230;2023-04-03T14:24:17;1.97;;;1.40;;
8893;SDS011;4483;48.622;9.230;2023-04-03T14:26:44;1.60;;;1.50;;
8893;SDS011;4483;48.622;9.230;2023-04-03T14:29:12;1.40;;;1.30;;
8893;SDS011;4483;48.622;9.230;2023-04-03T14:31:40;1.20;;;1.10;;
8893;SDS011;4483;48.622;9.230;2023-04-03T14:34:09;1.83;;;1.27;;
8893;SDS011;4483;48.622;9.230;2023-04-03T14:36:36;1.40;;;1.30;;
8893;SDS011;4483;48.622;9.230;2023-04-03T14:39:05;2.87;;;1.40;;
8893;SDS011;4483;48.622;9.230;2023-04-03T14:41:34;1.13;;;1.13;;
8893;SDS011;4483;48.622;9.230;2023-04-03T14:44:01;2.03;;;1.60;;
8893;SDS011;4483;48.622;9.230;2023-04-03T14:46:29;4.00;;;1.40;;
8893;SDS011;4483;48.622;9.230;2023-04-03T14:48:57;2.00;;;1.30;;
8893;SDS011;4483;48.622;9.230;2023-04-03T14:51:24;2.13;;;1.30;;
8893;SDS011;4483;48.622;9.230;2023-04-03T14:53:51;1.73;;;1.50;;
8893;SDS011;4483;48.622;9.230;2023-04-03T14:56:23;1.37;;;1.27;;
8893;SDS011;4483;48.622;9.230;2023-04-03T14:58:52;2.20;;;1.43;;
8893;SDS011;4483;48.622;9.230;2023-04-03T15:01:22;2.17;;;1.30;;
8893;SDS011;4483;48.622;9.230;2023-04-03T15:03:48;3.10;;;1.40;;
8893;SDS011;4483;48.622;9.230;2023-04-03T15:06:15;1.70;;;1.40;;
8893;SDS011;4483;48.622;9.230;2023-04-03T15:08:42;1.93;;;1.40;;
8893;SDS011;4483;48.622;9.230;2023-04-03T15:11:11;2.13;;;1.57;;
8893;SDS011;4483;48.622;9.230;2023-04-03T15:13:40;2.03;;;1.40;;
8893;SDS011;4483;48.622;9.230;2023-04-03T15:16:11;1.87;;;1.40;;
8893;SDS011;4483;48.622;9.230;2023-04-03T15:18:41;2.80;;;1.70;;
8893;SDS011;4483;48.622;9.230;2023-04-03T15:21:09;1.93;;;1.50;;
8893;SDS011;4483;48.622;9.230;2023-04-03T15:23:35;2.50;;;1.40;;
8893;SDS011;4483;48.622;9.230;2023-04-03T15:26:02;1.93;;;1.60;;
8893;SDS011;4483;48.622;9.230;2023-04-03T15:28:30;1.20;;;1.20;;
8893;SDS011;4483;48.622;9.230;2023-04-03T15:31:00;1.20;;;1.20;;
8893;SDS011;4483;48.622;9.230;2023-04-03T15:33:27;1.73;;;1.53;;
8893;SDS011;4483;48.622;9.230;2023-04-03T15:35:54;2.17;;;1.43;;
8893;SDS011;4483;48.622;9.230;2023-04-03T15:38:20;1.60;;;1.50;;
8893;SDS011;4483;48.622;9.230;2023-04-03T15:40:47;1.57;;;1.50;;
8893;SDS011;4483;48.622;9.230;2023-04-03T15:43:14;2.70;;;1.30;;
8893;SDS011;4483;48.622;9.230;2023-04-03T15:45:42;2.07;;;1.53;;
8893;SDS011;4483;48.622;9.230;2023-04-03T15:48:11;1.70;;;1.40;;
8893;SDS011;4483;48.622;9.230;2023-04-03T15:50:39;1.53;;;1.43;;
8893;SDS011;4483;48.622;9.230;2023-04-03T15:53:06;1.40;;;1.30;;
8893;SDS011;4483;48.622;9.230;2023-04-03T15:55:34;1.90;;;1.60;;